Miami, Florida
Traffic Map
Current Weather Conditions
Miami, Florida
Scattered Clouds
Scattered Clouds
29°
Feels Like: 32°
Wind Chill: 29° Ceiling: Unl
Heat Index: 32° Visibility: 10mi
Dew Point: 21° Wind: 0mph
Humidity: 59% Direction: ° ()
Pressure: 30.06in Gusts: 0mph
Raw Report DataKMIA 291453Z 00000KT 10SM SCT033 29/21 A3006 RMK AO2 SLP181 T02940206 51006
Traffic Incident Summary
Active as of:
Severity:
Category:
InformationThere was an issue retrieving the traffic information for this location. Please try a different location or try again shortly.
Advertisements
Track Severe Weather on mobile